LVFWZ SAWH-SAWC
Flight info
| Callsign | LVFWZ |
|---|---|
| Flight time | 1h 6m |
| Altitude | 36000 |
| Route | GRA2A GRA UW42 GAL UW52 DEVIS DEVIS2Q |
| Aircraft | A21N/M-SDE2E3FGHIRWXY/LB1 |
Departure
| Time | 2026-04-16 22:11 |
|---|---|
| Airport | Ushuaia - Malvinas Argentinas International Airport (SAWH) |
Arrival
| Time | 2026-04-16 23:18 |
|---|---|
| Airport | El Calafate - Commander Armando Tola International Airport (SAWC) |
| Time | Latitude | Longitude | Altitude | Speed | Heading |
|---|---|---|---|---|---|
| 2026-04-16 21:41 | -54.84018 | -68.31265 | 86 ft | 0 kts | 27° |
| 2026-04-16 22:01 | -54.84019 | -68.31265 | 87 ft | 1 kts | 28° |
| 2026-04-16 22:02 | -54.84031 | -68.31277 | 87 ft | 1 kts | 27° |
| 2026-04-16 22:02 | -54.84040 | -68.31284 | 87 ft | 2 kts | 20° |
| 2026-04-16 22:02 | -54.84055 | -68.31288 | 86 ft | 2 kts | 356° |
| 2026-04-16 22:02 | -54.84069 | -68.31283 | 86 ft | 2 kts | 336° |
| 2026-04-16 22:03 | -54.84082 | -68.31269 | 86 ft | 2 kts | 315° |
| 2026-04-16 22:03 | -54.84091 | -68.31248 | 87 ft | 2 kts | 295° |
| 2026-04-16 22:03 | -54.84096 | -68.31224 | 87 ft | 2 kts | 276° |
| 2026-04-16 22:03 | -54.84096 | -68.31210 | 88 ft | 1 kts | 264° |
| 2026-04-16 22:04 | -54.84095 | -68.31200 | 88 ft | 0 kts | 264° |
| 2026-04-16 22:06 | -54.84096 | -68.31220 | 87 ft | 3 kts | 263° |
| 2026-04-16 22:06 | -54.84119 | -68.31310 | 85 ft | 2 kts | 220° |
| 2026-04-16 22:06 | -54.84144 | -68.31325 | 84 ft | 5 kts | 187° |
| 2026-04-16 22:07 | -54.84188 | -68.31329 | 83 ft | 5 kts | 179° |
| 2026-04-16 22:07 | -54.84227 | -68.31325 | 83 ft | 5 kts | 175° |
| 2026-04-16 22:07 | -54.84262 | -68.31319 | 83 ft | 0 kts | 174° |
| 2026-04-16 22:08 | -54.84273 | -68.31317 | 82 ft | 2 kts | 174° |
| 2026-04-16 22:08 | -54.84295 | -68.31313 | 82 ft | 4 kts | 174° |
| 2026-04-16 22:09 | -54.84330 | -68.31308 | 82 ft | 5 kts | 174° |
| 2026-04-16 22:09 | -54.84371 | -68.31280 | 82 ft | 6 kts | 136° |
| 2026-04-16 22:09 | -54.84389 | -68.31220 | 84 ft | 5 kts | 101° |
| 2026-04-16 22:09 | -54.84391 | -68.31167 | 85 ft | 3 kts | 90° |
| 2026-04-16 22:10 | -54.84391 | -68.31155 | 85 ft | 0 kts | 89° |
| 2026-04-16 22:10 | -54.84388 | -68.31080 | 87 ft | 28 kts | 87° |
| 2026-04-16 22:10 | -54.84351 | -68.30230 | 92 ft | 108 kts | 86° |
| 2026-04-16 22:11 | -54.84291 | -68.28542 | 84 ft | 166 kts | 86° |
| 2026-04-16 22:11 | -54.84218 | -68.26520 | 703 ft | 168 kts | 82° |
| 2026-04-16 22:11 | -54.83678 | -68.24786 | 1369 ft | 169 kts | 41° |
| 2026-04-16 22:11 | -54.82578 | -68.24182 | 1968 ft | 176 kts | 359° |
| 2026-04-16 22:12 | -54.81323 | -68.24768 | 2366 ft | 202 kts | 344° |
| 2026-04-16 22:12 | -54.79882 | -68.25235 | 2959 ft | 220 kts | 358° |
| 2026-04-16 22:12 | -54.78318 | -68.25198 | 3621 ft | 236 kts | 6° |
| 2026-04-16 22:12 | -54.76629 | -68.24784 | 4303 ft | 253 kts | 11° |
| 2026-04-16 22:13 | -54.74890 | -68.24141 | 5208 ft | 261 kts | 12° |
| 2026-04-16 22:13 | -54.73154 | -68.23385 | 6239 ft | 262 kts | 13° |
| 2026-04-16 22:13 | -54.71404 | -68.22559 | 7249 ft | 264 kts | 13° |
| 2026-04-16 22:13 | -54.69659 | -68.21699 | 8182 ft | 267 kts | 13° |
| 2026-04-16 22:14 | -54.67886 | -68.20811 | 9091 ft | 270 kts | 12° |
| 2026-04-16 22:14 | -54.66082 | -68.19888 | 9962 ft | 274 kts | 12° |
| 2026-04-16 22:14 | -54.64222 | -68.18937 | 10485 ft | 290 kts | 12° |
| 2026-04-16 22:14 | -54.62235 | -68.17918 | 10925 ft | 307 kts | 12° |
| 2026-04-16 22:15 | -54.60149 | -68.16836 | 11540 ft | 318 kts | 12° |
| 2026-04-16 22:15 | -54.58024 | -68.15728 | 12464 ft | 318 kts | 11° |
| 2026-04-16 22:15 | -54.55934 | -68.14635 | 13379 ft | 318 kts | 11° |
| 2026-04-16 22:15 | -54.53841 | -68.13537 | 14233 ft | 319 kts | 11° |
| 2026-04-16 22:16 | -54.51725 | -68.12434 | 15086 ft | 319 kts | 10° |
| 2026-04-16 22:16 | -54.49586 | -68.11318 | 15881 ft | 321 kts | 9° |
| 2026-04-16 22:16 | -54.47446 | -68.10206 | 16632 ft | 323 kts | 9° |
| 2026-04-16 22:16 | -54.45317 | -68.09102 | 17405 ft | 324 kts | 8° |
| 2026-04-16 22:17 | -54.43150 | -68.07976 | 18147 ft | 326 kts | 7° |
| 2026-04-16 22:17 | -54.40980 | -68.06857 | 18815 ft | 328 kts | 8° |
| 2026-04-16 22:17 | -54.38821 | -68.05749 | 19488 ft | 329 kts | 8° |
| 2026-04-16 22:17 | -54.36637 | -68.04626 | 20206 ft | 329 kts | 7° |
| 2026-04-16 22:18 | -54.34451 | -68.03501 | 20884 ft | 330 kts | 7° |
| 2026-04-16 22:18 | -54.32262 | -68.02376 | 21529 ft | 331 kts | 8° |
| 2026-04-16 22:18 | -54.30064 | -68.01244 | 22145 ft | 331 kts | 8° |
| 2026-04-16 22:18 | -54.27851 | -68.00111 | 22731 ft | 333 kts | 8° |
| 2026-04-16 22:19 | -54.25647 | -67.98981 | 23295 ft | 333 kts | 8° |
| 2026-04-16 22:19 | -54.23434 | -67.97844 | 23877 ft | 333 kts | 8° |
| 2026-04-16 22:19 | -54.21210 | -67.96704 | 24425 ft | 334 kts | 8° |
| 2026-04-16 22:19 | -54.19003 | -67.95571 | 24902 ft | 335 kts | 8° |
| 2026-04-16 22:20 | -54.16773 | -67.94431 | 25319 ft | 338 kts | 8° |
| 2026-04-16 22:20 | -54.14515 | -67.93278 | 25740 ft | 341 kts | 7° |
| 2026-04-16 22:20 | -54.12238 | -67.92125 | 26138 ft | 343 kts | 8° |
| 2026-04-16 22:20 | -54.09973 | -67.90966 | 26547 ft | 345 kts | 7° |
| 2026-04-16 22:21 | -54.07671 | -67.89803 | 26924 ft | 347 kts | 8° |
| 2026-04-16 22:21 | -54.05363 | -67.88626 | 27341 ft | 347 kts | 8° |
| 2026-04-16 22:21 | -54.03059 | -67.87453 | 27721 ft | 349 kts | 8° |
| 2026-04-16 22:21 | -54.00714 | -67.86264 | 28076 ft | 350 kts | 7° |
| 2026-04-16 22:22 | -53.98375 | -67.85084 | 28417 ft | 352 kts | 7° |
| 2026-04-16 22:22 | -53.96039 | -67.83897 | 28730 ft | 355 kts | 7° |
| 2026-04-16 22:22 | -53.93661 | -67.82700 | 29055 ft | 356 kts | 8° |
| 2026-04-16 22:22 | -53.91282 | -67.81506 | 29383 ft | 358 kts | 7° |
| 2026-04-16 22:23 | -53.88890 | -67.80292 | 29769 ft | 357 kts | 8° |
| 2026-04-16 22:23 | -53.86540 | -67.79119 | 30213 ft | 354 kts | 6° |
| 2026-04-16 22:23 | -53.84158 | -67.78236 | 30633 ft | 347 kts | 2° |
| 2026-04-16 22:23 | -53.81770 | -67.77734 | 30985 ft | 343 kts | 358° |
| 2026-04-16 22:24 | -53.79414 | -67.77601 | 31290 ft | 340 kts | 354° |
| 2026-04-16 22:24 | -53.77074 | -67.77816 | 31609 ft | 338 kts | 350° |
| 2026-04-16 22:24 | -53.74748 | -67.78383 | 31976 ft | 334 kts | 346° |
| 2026-04-16 22:24 | -53.72516 | -67.79261 | 32309 ft | 333 kts | 342° |
| 2026-04-16 22:25 | -53.70309 | -67.80472 | 32603 ft | 332 kts | 339° |
| 2026-04-16 22:25 | -53.68200 | -67.81963 | 32898 ft | 332 kts | 336° |
| 2026-04-16 22:25 | -53.66083 | -67.83542 | 33159 ft | 332 kts | 336° |
| 2026-04-16 22:25 | -53.63984 | -67.85111 | 33432 ft | 332 kts | 336° |
| 2026-04-16 22:26 | -53.61877 | -67.86694 | 33713 ft | 332 kts | 336° |
| 2026-04-16 22:26 | -53.59767 | -67.88287 | 33947 ft | 332 kts | 335° |
| 2026-04-16 22:26 | -53.57674 | -67.89874 | 34111 ft | 334 kts | 335° |
| 2026-04-16 22:26 | -53.55550 | -67.91489 | 34253 ft | 336 kts | 335° |
| 2026-04-16 22:27 | -53.53434 | -67.93095 | 34394 ft | 338 kts | 335° |
| 2026-04-16 22:27 | -53.51281 | -67.94730 | 34528 ft | 340 kts | 336° |
| 2026-04-16 22:27 | -53.49146 | -67.96355 | 34659 ft | 341 kts | 336° |
| 2026-04-16 22:27 | -53.46981 | -67.97995 | 34775 ft | 343 kts | 335° |
| 2026-04-16 22:28 | -53.44809 | -67.99648 | 34906 ft | 345 kts | 336° |
| 2026-04-16 22:28 | -53.42624 | -68.01300 | 35042 ft | 346 kts | 335° |
| 2026-04-16 22:28 | -53.40419 | -68.02973 | 35151 ft | 348 kts | 335° |
| 2026-04-16 22:28 | -53.38203 | -68.04653 | 35261 ft | 349 kts | 335° |
| 2026-04-16 22:29 | -53.35987 | -68.06332 | 35371 ft | 351 kts | 335° |
| 2026-04-16 22:29 | -53.33780 | -68.07997 | 35372 ft | 352 kts | 335° |
| 2026-04-16 22:29 | -53.31559 | -68.09681 | 35635 ft | 352 kts | 335° |
| 2026-04-16 22:29 | -53.29327 | -68.11362 | 35498 ft | 351 kts | 335° |
| 2026-04-16 22:30 | -53.24923 | -68.14678 | 35416 ft | 349 kts | 335° |
| 2026-04-16 22:30 | -53.20506 | -68.17999 | 35397 ft | 350 kts | 336° |
| 2026-04-16 22:31 | -53.16075 | -68.21316 | 35400 ft | 349 kts | 335° |
| 2026-04-16 22:31 | -53.11659 | -68.24618 | 35406 ft | 349 kts | 335° |
| 2026-04-16 22:32 | -53.07230 | -68.27924 | 35404 ft | 350 kts | 335° |
| 2026-04-16 22:32 | -53.02822 | -68.31210 | 35396 ft | 350 kts | 335° |
| 2026-04-16 22:33 | -52.98388 | -68.34497 | 35395 ft | 349 kts | 335° |
| 2026-04-16 22:33 | -52.93974 | -68.37776 | 35398 ft | 349 kts | 335° |
| 2026-04-16 22:34 | -52.89535 | -68.41057 | 35401 ft | 350 kts | 335° |
| 2026-04-16 22:34 | -52.85110 | -68.44319 | 35400 ft | 350 kts | 335° |
| 2026-04-16 22:35 | -52.80650 | -68.47607 | 35406 ft | 349 kts | 335° |
| 2026-04-16 22:35 | -52.76224 | -68.50855 | 35404 ft | 349 kts | 335° |
| 2026-04-16 22:36 | -52.71823 | -68.54085 | 35406 ft | 349 kts | 335° |
| 2026-04-16 22:36 | -52.67387 | -68.57328 | 35406 ft | 349 kts | 335° |
| 2026-04-16 22:37 | -52.62950 | -68.60572 | 35402 ft | 349 kts | 335° |
| 2026-04-16 22:37 | -52.58522 | -68.63800 | 35407 ft | 349 kts | 335° |
| 2026-04-16 22:38 | -52.54094 | -68.67014 | 35402 ft | 348 kts | 335° |
| 2026-04-16 22:38 | -52.49681 | -68.70225 | 35399 ft | 348 kts | 335° |
| 2026-04-16 22:39 | -52.45254 | -68.73426 | 35403 ft | 348 kts | 335° |
| 2026-04-16 22:39 | -52.40808 | -68.76638 | 35403 ft | 349 kts | 335° |
| 2026-04-16 22:40 | -52.36400 | -68.79822 | 35408 ft | 349 kts | 335° |
| 2026-04-16 22:40 | -52.31942 | -68.83031 | 35404 ft | 348 kts | 336° |
| 2026-04-16 22:41 | -52.27527 | -68.86201 | 35404 ft | 348 kts | 336° |
| 2026-04-16 22:41 | -52.23089 | -68.89373 | 35395 ft | 349 kts | 335° |
| 2026-04-16 22:42 | -52.18637 | -68.92563 | 35395 ft | 348 kts | 335° |
| 2026-04-16 22:42 | -52.14210 | -68.95719 | 35394 ft | 348 kts | 335° |
| 2026-04-16 22:43 | -52.09779 | -68.98878 | 35394 ft | 349 kts | 335° |
| 2026-04-16 22:43 | -52.05331 | -69.02031 | 35393 ft | 348 kts | 335° |
| 2026-04-16 22:44 | -52.00908 | -69.05173 | 35391 ft | 348 kts | 335° |
| 2026-04-16 22:44 | -51.96469 | -69.08316 | 35392 ft | 348 kts | 335° |
| 2026-04-16 22:45 | -51.92039 | -69.11436 | 35398 ft | 348 kts | 335° |
| 2026-04-16 22:45 | -51.87583 | -69.14570 | 35405 ft | 349 kts | 335° |
| 2026-04-16 22:46 | -51.83162 | -69.17677 | 35406 ft | 349 kts | 335° |
| 2026-04-16 22:46 | -51.78723 | -69.20795 | 35406 ft | 348 kts | 335° |
| 2026-04-16 22:47 | -51.74283 | -69.23902 | 35401 ft | 348 kts | 335° |
| 2026-04-16 22:47 | -51.69848 | -69.27006 | 35392 ft | 349 kts | 334° |
| 2026-04-16 22:48 | -51.65588 | -69.30676 | 35392 ft | 347 kts | 328° |
| 2026-04-16 22:48 | -51.61674 | -69.35149 | 35390 ft | 349 kts | 323° |
| 2026-04-16 22:49 | -51.58102 | -69.40435 | 35390 ft | 350 kts | 317° |
| 2026-04-16 22:49 | -51.54953 | -69.46454 | 35387 ft | 354 kts | 312° |
| 2026-04-16 22:50 | -51.51968 | -69.52728 | 35390 ft | 355 kts | 312° |
| 2026-04-16 22:50 | -51.48994 | -69.58993 | 35312 ft | 350 kts | 312° |
| 2026-04-16 22:51 | -51.47554 | -69.62047 | 34981 ft | 347 kts | 313° |
| 2026-04-16 22:51 | -51.46098 | -69.65135 | 34436 ft | 347 kts | 314° |
| 2026-04-16 22:51 | -51.44649 | -69.68190 | 34010 ft | 342 kts | 314° |
| 2026-04-16 22:51 | -51.43248 | -69.71162 | 33661 ft | 336 kts | 315° |
| 2026-04-16 22:52 | -51.41832 | -69.74154 | 33395 ft | 335 kts | 314° |
| 2026-04-16 22:52 | -51.40435 | -69.77091 | 33195 ft | 338 kts | 315° |
| 2026-04-16 22:52 | -51.39000 | -69.80109 | 32994 ft | 340 kts | 315° |
| 2026-04-16 22:52 | -51.37584 | -69.83083 | 32792 ft | 341 kts | 315° |
| 2026-04-16 22:53 | -51.36133 | -69.86130 | 32568 ft | 341 kts | 314° |
| 2026-04-16 22:53 | -51.34708 | -69.89118 | 32349 ft | 342 kts | 315° |
| 2026-04-16 22:53 | -51.33279 | -69.92120 | 32136 ft | 344 kts | 315° |
| 2026-04-16 22:53 | -51.31819 | -69.95179 | 31922 ft | 344 kts | 315° |
| 2026-04-16 22:54 | -51.30368 | -69.98217 | 31702 ft | 346 kts | 315° |
| 2026-04-16 22:54 | -51.28912 | -70.01253 | 31478 ft | 346 kts | 315° |
| 2026-04-16 22:54 | -51.27464 | -70.04284 | 31248 ft | 349 kts | 315° |
| 2026-04-16 22:54 | -51.25990 | -70.07359 | 31031 ft | 349 kts | 315° |
| 2026-04-16 22:55 | -51.24515 | -70.10432 | 30759 ft | 350 kts | 315° |
| 2026-04-16 22:55 | -51.23023 | -70.13544 | 30378 ft | 352 kts | 315° |
| 2026-04-16 22:55 | -51.21552 | -70.16602 | 29830 ft | 353 kts | 315° |
| 2026-04-16 22:55 | -51.20065 | -70.19685 | 29199 ft | 353 kts | 315° |
| 2026-04-16 22:56 | -51.18573 | -70.22778 | 28524 ft | 353 kts | 314° |
| 2026-04-16 22:56 | -51.17079 | -70.25867 | 27833 ft | 354 kts | 314° |
| 2026-04-16 22:56 | -51.15589 | -70.28958 | 27240 ft | 351 kts | 314° |
| 2026-04-16 22:56 | -51.14114 | -70.32015 | 26781 ft | 345 kts | 314° |
| 2026-04-16 22:57 | -51.12667 | -70.35003 | 26333 ft | 340 kts | 314° |
| 2026-04-16 22:57 | -51.11249 | -70.37929 | 25887 ft | 335 kts | 314° |
| 2026-04-16 22:57 | -51.09832 | -70.40851 | 25445 ft | 330 kts | 314° |
| 2026-04-16 22:57 | -51.08442 | -70.43713 | 25015 ft | 326 kts | 314° |
| 2026-04-16 22:58 | -51.07074 | -70.46523 | 24592 ft | 322 kts | 313° |
| 2026-04-16 22:58 | -51.05681 | -70.49300 | 24106 ft | 319 kts | 315° |
| 2026-04-16 22:58 | -51.04234 | -70.51922 | 23612 ft | 315 kts | 317° |
| 2026-04-16 22:58 | -51.02779 | -70.54446 | 23149 ft | 313 kts | 317° |
| 2026-04-16 22:59 | -51.01321 | -70.57011 | 22673 ft | 312 kts | 317° |
| 2026-04-16 22:59 | -50.99882 | -70.59534 | 22194 ft | 311 kts | 316° |
| 2026-04-16 22:59 | -50.98427 | -70.62076 | 21713 ft | 309 kts | 316° |
| 2026-04-16 22:59 | -50.97008 | -70.64555 | 21254 ft | 307 kts | 316° |
| 2026-04-16 23:00 | -50.95561 | -70.67077 | 20800 ft | 306 kts | 316° |
| 2026-04-16 23:00 | -50.94146 | -70.69540 | 20343 ft | 304 kts | 316° |
| 2026-04-16 23:00 | -50.92729 | -70.71999 | 19881 ft | 302 kts | 316° |
| 2026-04-16 23:00 | -50.91316 | -70.74461 | 19439 ft | 301 kts | 316° |
| 2026-04-16 23:01 | -50.89917 | -70.76879 | 19008 ft | 300 kts | 316° |
| 2026-04-16 23:01 | -50.88497 | -70.79336 | 18557 ft | 298 kts | 315° |
| 2026-04-16 23:01 | -50.87121 | -70.81713 | 18152 ft | 297 kts | 315° |
| 2026-04-16 23:01 | -50.85729 | -70.84120 | 17751 ft | 295 kts | 315° |
| 2026-04-16 23:02 | -50.84347 | -70.86503 | 17366 ft | 294 kts | 315° |
| 2026-04-16 23:02 | -50.82966 | -70.88889 | 16960 ft | 293 kts | 315° |
| 2026-04-16 23:02 | -50.81594 | -70.91254 | 16570 ft | 293 kts | 315° |
| 2026-04-16 23:02 | -50.80232 | -70.93598 | 16186 ft | 293 kts | 315° |
| 2026-04-16 23:03 | -50.78857 | -70.95963 | 15786 ft | 291 kts | 315° |
| 2026-04-16 23:03 | -50.77488 | -70.98313 | 15359 ft | 293 kts | 314° |
| 2026-04-16 23:03 | -50.76116 | -71.00666 | 14887 ft | 294 kts | 314° |
| 2026-04-16 23:03 | -50.74724 | -71.03056 | 14404 ft | 294 kts | 314° |
| 2026-04-16 23:04 | -50.73354 | -71.05405 | 13951 ft | 294 kts | 314° |
| 2026-04-16 23:04 | -50.71963 | -71.07790 | 13482 ft | 295 kts | 314° |
| 2026-04-16 23:04 | -50.70566 | -71.10180 | 13014 ft | 296 kts | 314° |
| 2026-04-16 23:04 | -50.69178 | -71.12552 | 12560 ft | 295 kts | 313° |
| 2026-04-16 23:05 | -50.67792 | -71.14922 | 12125 ft | 295 kts | 314° |
| 2026-04-16 23:05 | -50.66415 | -71.17274 | 11671 ft | 294 kts | 313° |
| 2026-04-16 23:05 | -50.65024 | -71.19644 | 11213 ft | 294 kts | 313° |
| 2026-04-16 23:05 | -50.63640 | -71.21999 | 10776 ft | 293 kts | 313° |
| 2026-04-16 23:06 | -50.62270 | -71.24331 | 10355 ft | 292 kts | 313° |
| 2026-04-16 23:06 | -50.60898 | -71.26666 | 10090 ft | 284 kts | 313° |
| 2026-04-16 23:06 | -50.59611 | -71.28855 | 9949 ft | 264 kts | 313° |
| 2026-04-16 23:06 | -50.58397 | -71.30917 | 9838 ft | 250 kts | 313° |
| 2026-04-16 23:07 | -50.57228 | -71.32900 | 9689 ft | 241 kts | 313° |
| 2026-04-16 23:07 | -50.56110 | -71.34797 | 9544 ft | 236 kts | 313° |
| 2026-04-16 23:07 | -50.55005 | -71.36668 | 9403 ft | 234 kts | 313° |
| 2026-04-16 23:07 | -50.53886 | -71.38560 | 9020 ft | 237 kts | 313° |
| 2026-04-16 23:08 | -50.52773 | -71.40441 | 8641 ft | 238 kts | 313° |
| 2026-04-16 23:08 | -50.51640 | -71.42355 | 8297 ft | 237 kts | 313° |
| 2026-04-16 23:08 | -50.50530 | -71.44229 | 7975 ft | 237 kts | 313° |
| 2026-04-16 23:08 | -50.49406 | -71.46125 | 7620 ft | 237 kts | 314° |
| 2026-04-16 23:09 | -50.48279 | -71.48023 | 7280 ft | 237 kts | 314° |
| 2026-04-16 23:09 | -50.47169 | -71.49894 | 6983 ft | 235 kts | 314° |
| 2026-04-16 23:09 | -50.46053 | -71.51774 | 6658 ft | 235 kts | 314° |
| 2026-04-16 23:09 | -50.44935 | -71.53651 | 6331 ft | 235 kts | 314° |
| 2026-04-16 23:10 | -50.43837 | -71.55491 | 6051 ft | 232 kts | 313° |
| 2026-04-16 23:10 | -50.42762 | -71.57297 | 5998 ft | 221 kts | 314° |
| 2026-04-16 23:10 | -50.41712 | -71.59061 | 6002 ft | 220 kts | 314° |
| 2026-04-16 23:10 | -50.40667 | -71.60814 | 5951 ft | 222 kts | 314° |
| 2026-04-16 23:11 | -50.39610 | -71.62578 | 5539 ft | 225 kts | 313° |
| 2026-04-16 23:11 | -50.38542 | -71.64363 | 5185 ft | 225 kts | 313° |
| 2026-04-16 23:11 | -50.37472 | -71.66153 | 4924 ft | 220 kts | 314° |
| 2026-04-16 23:11 | -50.36433 | -71.67893 | 4909 ft | 220 kts | 313° |
| 2026-04-16 23:12 | -50.35327 | -71.69536 | 4900 ft | 221 kts | 323° |
| 2026-04-16 23:12 | -50.34011 | -71.70757 | 4837 ft | 217 kts | 332° |
| 2026-04-16 23:12 | -50.32657 | -71.71761 | 4477 ft | 219 kts | 334° |
| 2026-04-16 23:12 | -50.31275 | -71.72755 | 4124 ft | 216 kts | 334° |
| 2026-04-16 23:13 | -50.29905 | -71.73742 | 3514 ft | 218 kts | 334° |
| 2026-04-16 23:13 | -50.28550 | -71.74723 | 3048 ft | 215 kts | 334° |
| 2026-04-16 23:13 | -50.27263 | -71.75739 | 2892 ft | 197 kts | 323° |
| 2026-04-16 23:13 | -50.26512 | -71.77332 | 2861 ft | 174 kts | 284° |
| 2026-04-16 23:14 | -50.26407 | -71.79196 | 2966 ft | 173 kts | 269° |
| 2026-04-16 23:14 | -50.26530 | -71.81038 | 2935 ft | 173 kts | 264° |
| 2026-04-16 23:14 | -50.26693 | -71.82901 | 2923 ft | 173 kts | 264° |
| 2026-04-16 23:14 | -50.26831 | -71.84764 | 2911 ft | 170 kts | 265° |
| 2026-04-16 23:15 | -50.27040 | -71.88294 | 2888 ft | 158 kts | 268° |
| 2026-04-16 23:15 | -50.27135 | -71.90012 | 2909 ft | 157 kts | 267° |
| 2026-04-16 23:15 | -50.27230 | -71.91698 | 2911 ft | 157 kts | 266° |
| 2026-04-16 23:16 | -50.27327 | -71.93401 | 2910 ft | 157 kts | 266° |
| 2026-04-16 23:16 | -50.27451 | -71.95079 | 2851 ft | 156 kts | 265° |
| 2026-04-16 23:16 | -50.27541 | -71.96791 | 2749 ft | 157 kts | 266° |
| 2026-04-16 23:16 | -50.27620 | -71.98428 | 2456 ft | 151 kts | 266° |
| 2026-04-16 23:17 | -50.27717 | -72.00075 | 2005 ft | 155 kts | 266° |
| 2026-04-16 23:17 | -50.27839 | -72.01831 | 1323 ft | 172 kts | 264° |
| 2026-04-16 23:17 | -50.27935 | -72.03704 | 843 ft | 173 kts | 265° |
| 2026-04-16 23:17 | -50.28031 | -72.05480 | 689 ft | 156 kts | 264° |
| 2026-04-16 23:18 | -50.28102 | -72.06768 | 673 ft | 44 kts | 263° |
| 2026-04-16 23:18 | -50.28147 | -72.07016 | 673 ft | 17 kts | 319° |
| 2026-04-16 23:18 | -50.28109 | -72.06987 | 673 ft | 0 kts | 109° |
| 2026-04-16 23:18 | -50.28118 | -72.06903 | 673 ft | 10 kts | 94° |
| 2026-04-16 23:19 | -50.28116 | -72.06797 | 673 ft | 10 kts | 86° |
| 2026-04-16 23:19 | -50.28109 | -72.06680 | 673 ft | 11 kts | 84° |
| 2026-04-16 23:19 | -50.28100 | -72.06555 | 673 ft | 12 kts | 84° |
| 2026-04-16 23:19 | -50.28090 | -72.06409 | 673 ft | 21 kts | 84° |
| 2026-04-16 23:20 | -50.28077 | -72.06163 | 673 ft | 23 kts | 84° |
| 2026-04-16 23:20 | -50.28061 | -72.05908 | 673 ft | 18 kts | 84° |
| 2026-04-16 23:20 | -50.28060 | -72.05893 | 673 ft | 0 kts | 83° |
| 2026-04-16 23:20 | -50.28054 | -72.05817 | 673 ft | 20 kts | 84° |
| 2026-04-16 23:21 | -50.28040 | -72.05599 | 673 ft | 17 kts | 85° |
| 2026-04-16 23:21 | -50.28053 | -72.05453 | 673 ft | 13 kts | 132° |
| 2026-04-16 23:21 | -50.28144 | -72.05405 | 673 ft | 14 kts | 173° |
| 2026-04-16 23:21 | -50.28244 | -72.05384 | 673 ft | 14 kts | 163° |
| 2026-04-16 23:22 | -50.28314 | -72.05374 | 673 ft | 5 kts | 174° |
| 2026-04-16 23:22 | -50.28334 | -72.05370 | 673 ft | 2 kts | 172° |
| 2026-04-16 23:22 | -50.28338 | -72.05370 | 673 ft | 0 kts | 172° |